Time;durP1;ratioP1;P1;durP2;ratioP2;P2;SDS_P1;SDS_P2;PMS_P1;PMS_P2;Temp;Humidity;BMP_temperature;BMP_pressure;BME280_temperature;BME280_humidity;BME280_pressure;Samples;Min_cycle;Max_cycle;Signal;HPM_P1;HPM_P2
2023/07/25 00:05:39;;;;;;;2.45;1.52;;;;;;;;;;20995271;28;20068;-67
2023/07/25 00:15:40;;;;;;;72.35;33.75;;;;;;;;;;20994778;28;20045;-67
2023/07/25 00:25:41;;;;;;;6.50;3.55;;;;;;;;;;21006663;28;20037;-67
2023/07/25 00:35:42;;;;;;;7.85;1.80;;;;;;;;;;21007679;28;20040;-67
2023/07/25 00:45:43;;;;;;;2.92;1.65;;;;;;;;;;21008940;28;20155;-66
2023/07/25 00:55:45;;;;;;;5.07;2.58;;;;;;;;;;21006229;28;20055;-68
2023/07/25 01:05:47;;;;;;;4.03;1.38;;;;;;;;;;21006648;28;20090;-67
2023/07/25 01:15:53;;;;;;;1.70;1.02;;;;;;;;;;21005722;28;20052;-68
2023/07/25 01:25:54;;;;;;;2.63;1.23;;;;;;;;;;21003888;28;20037;-67
2023/07/25 01:35:55;;;;;;;5.72;1.35;;;;;;;;;;21003566;28;20071;-67
2023/07/25 01:45:57;;;;;;;3.42;1.10;;;;;;;;;;21001911;28;20053;-68
2023/07/25 01:55:58;;;;;;;2.95;1.40;;;;;;;;;;21002508;28;20048;-67
2023/07/25 02:05:59;;;;;;;3.35;1.38;;;;;;;;;;21001355;28;20436;-67
2023/07/25 02:16:00;;;;;;;3.67;1.30;;;;;;;;;;21000449;28;20559;-67
2023/07/25 02:26:01;;;;;;;2.05;1.20;;;;;;;;;;20998611;28;20048;-68
2023/07/25 02:36:02;;;;;;;2.83;1.70;;;;;;;;;;20997716;28;20047;-67
2023/07/25 02:46:03;;;;;;;3.83;1.30;;;;;;;;;;20996907;28;20102;-67
2023/07/25 02:56:04;;;;;;;3.30;1.60;;;;;;;;;;20997943;28;20051;-66
2023/07/25 03:06:05;;;;;;;2.65;1.40;;;;;;;;;;20996360;28;20048;-67
2023/07/25 03:16:06;;;;;;;2.28;1.38;;;;;;;;;;20995947;28;20113;-66
2023/07/25 03:26:08;;;;;;;2.17;1.45;;;;;;;;;;20995117;28;20087;-68
2023/07/25 03:36:09;;;;;;;3.95;2.95;;;;;;;;;;20996116;28;20040;-67
2023/07/25 03:46:10;;;;;;;2.72;1.63;;;;;;;;;;20994358;28;20057;-68
2023/07/25 03:56:11;;;;;;;2.75;1.58;;;;;;;;;;21001008;28;20075;-67
2023/07/25 04:06:13;;;;;;;2.67;1.40;;;;;;;;;;21011169;28;20178;-67
2023/07/25 04:16:14;;;;;;;2.70;1.30;;;;;;;;;;21010575;28;20165;-67
2023/07/25 04:26:15;;;;;;;2.92;1.55;;;;;;;;;;21009747;28;20048;-67
2023/07/25 04:36:16;;;;;;;2.20;1.30;;;;;;;;;;21009245;28;20120;-66
2023/07/25 04:46:17;;;;;;;2.97;1.13;;;;;;;;;;21006932;28;20136;-67
2023/07/25 04:56:18;;;;;;;1.98;1.20;;;;;;;;;;21006255;28;20053;-67
2023/07/25 05:06:19;;;;;;;3.47;1.80;;;;;;;;;;21005352;28;20041;-67
2023/07/25 05:16:20;;;;;;;1.95;1.15;;;;;;;;;;21004487;28;20048;-66
2023/07/25 05:26:21;;;;;;;2.80;1.50;;;;;;;;;;21004716;28;20110;-67
2023/07/25 05:36:22;;;;;;;2.20;1.25;;;;;;;;;;21004249;28;20067;-67
2023/07/25 05:46:23;;;;;;;4.72;1.38;;;;;;;;;;21002822;28;20052;-67
2023/07/25 05:56:25;;;;;;;2.08;1.42;;;;;;;;;;21002332;28;20466;-68
2023/07/25 06:06:26;;;;;;;3.95;2.17;;;;;;;;;;21001727;28;20044;-68
2023/07/25 06:16:27;;;;;;;6.07;2.22;;;;;;;;;;21000481;28;20041;-67
2023/07/25 06:26:28;;;;;;;4.45;1.83;;;;;;;;;;20999718;28;20048;-67
2023/07/25 06:36:29;;;;;;;11.35;2.30;;;;;;;;;;20998996;28;20045;-67
2023/07/25 06:46:30;;;;;;;4.95;2.05;;;;;;;;;;20997472;28;20060;-67
2023/07/25 06:56:31;;;;;;;3.42;1.70;;;;;;;;;;20997878;28;20048;-68
2023/07/25 07:06:32;;;;;;;3.17;1.80;;;;;;;;;;20997164;28;20432;-68
2023/07/25 07:16:34;;;;;;;4.10;1.65;;;;;;;;;;20996724;28;20405;-67
2023/07/25 07:26:35;;;;;;;7.68;1.83;;;;;;;;;;20996179;28;20040;-68
2023/07/25 07:36:36;;;;;;;4.55;1.55;;;;;;;;;;21011739;28;20076;-68
2023/07/25 07:46:38;;;;;;;4.63;1.52;;;;;;;;;;21012883;28;20045;-67
2023/07/25 07:56:39;;;;;;;5.82;1.73;;;;;;;;;;21011524;28;20470;-68
2023/07/25 08:06:40;;;;;;;4.03;1.55;;;;;;;;;;21009444;28;20074;-67
2023/07/25 08:16:41;;;;;;;2.45;1.70;;;;;;;;;;21009997;28;20040;-68
2023/07/25 08:26:42;;;;;;;3.65;1.35;;;;;;;;;;21008000;28;20076;-67
2023/07/25 08:36:43;;;;;;;2.78;1.50;;;;;;;;;;21008474;28;20041;-68
2023/07/25 08:46:45;;;;;;;5.32;2.15;;;;;;;;;;21006249;28;20059;-68
2023/07/25 08:56:46;;;;;;;5.22;1.88;;;;;;;;;;21007897;28;20128;-67
2023/07/25 09:06:48;;;;;;;3.38;2.05;;;;;;;;;;21006052;28;20044;-67
2023/07/25 09:16:49;;;;;;;7.90;1.95;;;;;;;;;;21004140;28;20044;-68
2023/07/25 09:26:50;;;;;;;4.53;1.90;;;;;;;;;;21004254;28;20074;-69
2023/07/25 09:36:51;;;;;;;6.13;2.08;;;;;;;;;;21004115;28;20040;-69
2023/07/25 09:46:53;;;;;;;5.65;2.35;;;;;;;;;;21003827;28;20056;-68
2023/07/25 09:56:54;;;;;;;4.00;1.92;;;;;;;;;;21001861;28;20052;-68
2023/07/25 10:06:56;;;;;;;5.38;1.98;;;;;;;;;;21000684;28;20139;-68
2023/07/25 10:16:58;;;;;;;4.20;1.60;;;;;;;;;;21000752;28;20107;-69
2023/07/25 10:27:00;;;;;;;4.70;2.15;;;;;;;;;;20999461;28;20149;-69
2023/07/25 10:37:24;;;;;;;4.45;2.03;;;;;;;;;;20999126;28;20044;-70
2023/07/25 10:47:42;;;;;;;5.65;2.58;;;;;;;;;;20993844;28;20048;-70
2023/07/25 10:58:03;;;;;;;8.25;2.38;;;;;;;;;;20998060;28;20071;-68
2023/07/25 11:08:04;;;;;;;8.07;2.15;;;;;;;;;;20996002;28;20044;-68
2023/07/25 11:18:09;;;;;;;4.47;2.10;;;;;;;;;;20996552;28;20534;-70
2023/07/25 11:28:10;;;;;;;7.27;2.23;;;;;;;;;;20996643;28;20044;-69
2023/07/25 11:38:12;;;;;;;4.78;2.30;;;;;;;;;;20996462;28;20482;-69
2023/07/25 11:48:18;;;;;;;4.55;2.10;;;;;;;;;;20994350;28;20049;-69
2023/07/25 11:58:19;;;;;;;5.82;3.65;;;;;;;;;;20995344;28;20041;-73
2023/07/25 12:08:33;;;;;;;4.78;2.30;;;;;;;;;;20995086;28;20045;-74
2023/07/25 12:18:37;;;;;;;2.97;2.00;;;;;;;;;;21002246;28;20048;-71
2023/07/25 12:28:39;;;;;;;3.45;2.08;;;;;;;;;;21009621;28;20041;-72
2023/07/25 12:38:40;;;;;;;6.32;4.05;;;;;;;;;;21008431;28;20150;-71
2023/07/25 12:48:41;;;;;;;4.07;1.85;;;;;;;;;;21008710;28;20056;-71
2023/07/25 12:58:42;;;;;;;5.65;1.95;;;;;;;;;;21007414;28;20043;-71
2023/07/25 13:08:43;;;;;;;4.93;2.08;;;;;;;;;;21006521;28;20037;-70
2023/07/25 13:18:44;;;;;;;5.10;3.40;;;;;;;;;;21006131;28;20468;-71
2023/07/25 13:28:45;;;;;;;3.35;2.42;;;;;;;;;;21004247;28;20504;-72
2023/07/25 13:38:46;;;;;;;6.28;4.30;;;;;;;;;;21003180;28;20056;-71
2023/07/25 13:48:48;;;;;;;4.72;2.60;;;;;;;;;;21001982;28;20052;-71
2023/07/25 13:58:49;;;;;;;2.17;1.85;;;;;;;;;;21001371;28;20155;-71
2023/07/25 14:08:50;;;;;;;4.93;2.28;;;;;;;;;;21001703;28;20044;-71
2023/07/25 14:18:51;;;;;;;8.95;6.70;;;;;;;;;;20999662;28;20045;-71
2023/07/25 14:28:53;;;;;;;7.65;4.82;;;;;;;;;;20999797;28;20118;-71
2023/07/25 14:38:55;;;;;;;4.75;2.70;;;;;;;;;;20998897;28;20049;-72
2023/07/25 14:48:56;;;;;;;5.80;1.90;;;;;;;;;;20998514;28;20055;-71
2023/07/25 14:58:57;;;;;;;5.20;2.40;;;;;;;;;;20999000;28;20048;-71
2023/07/25 15:08:58;;;;;;;7.10;4.95;;;;;;;;;;20998456;28;20054;-71
2023/07/25 15:18:59;;;;;;;2.50;1.85;;;;;;;;;;20995919;28;20041;-71
2023/07/25 15:29:00;;;;;;;5.07;3.63;;;;;;;;;;20996740;28;20041;-71
2023/07/25 15:39:02;;;;;;;2.10;1.52;;;;;;;;;;20995465;28;20056;-61
2023/07/25 15:49:03;;;;;;;3.25;2.30;;;;;;;;;;20994772;28;20055;-61
2023/07/25 15:59:05;;;;;;;3.67;2.50;;;;;;;;;;21010995;28;20052;-60
2023/07/25 16:09:06;;;;;;;4.18;2.25;;;;;;;;;;21009433;28;20041;-61
2023/07/25 16:19:07;;;;;;;3.15;2.20;;;;;;;;;;21009089;28;20094;-63
2023/07/25 16:29:08;;;;;;;3.83;2.25;;;;;;;;;;21008911;28;20128;-61
2023/07/25 16:39:10;;;;;;;3.40;2.20;;;;;;;;;;21006907;28;20059;-60
2023/07/25 16:49:11;;;;;;;3.58;2.30;;;;;;;;;;21006731;28;20041;-60
2023/07/25 16:59:12;;;;;;;3.08;2.15;;;;;;;;;;21007197;28;20049;-61
2023/07/25 17:09:13;;;;;;;3.90;2.45;;;;;;;;;;21006118;28;20040;-61
2023/07/25 17:19:14;;;;;;;5.03;2.90;;;;;;;;;;21003879;28;20059;-64
2023/07/25 17:29:15;;;;;;;4.18;2.83;;;;;;;;;;21005096;28;20063;-61
2023/07/25 17:39:17;;;;;;;4.35;2.40;;;;;;;;;;21003854;28;20057;-61
2023/07/25 17:49:18;;;;;;;3.85;2.70;;;;;;;;;;21003481;28;20055;-72
2023/07/25 17:59:19;;;;;;;4.30;2.65;;;;;;;;;;21002577;28;20370;-72
2023/07/25 18:09:20;;;;;;;4.07;2.30;;;;;;;;;;21000473;28;20041;-72
2023/07/25 18:19:21;;;;;;;4.25;2.90;;;;;;;;;;21000734;28;20045;-75
2023/07/25 18:29:22;;;;;;;4.75;2.17;;;;;;;;;;20999802;28;20066;-73
2023/07/25 18:39:23;;;;;;;6.22;2.78;;;;;;;;;;20998836;28;20078;-72
2023/07/25 18:49:24;;;;;;;4.85;2.83;;;;;;;;;;20998785;28;20124;-73
2023/07/25 18:59:25;;;;;;;3.78;2.55;;;;;;;;;;20998267;28;20127;-72
2023/07/25 19:09:27;;;;;;;3.13;2.20;;;;;;;;;;20997673;28;20448;-69
2023/07/25 19:19:28;;;;;;;5.22;2.42;;;;;;;;;;20996930;28;20047;-70
2023/07/25 19:29:29;;;;;;;5.15;3.50;;;;;;;;;;20995467;28;20040;-68
2023/07/25 19:39:33;;;;;;;3.47;2.45;;;;;;;;;;20995989;28;20103;-69
2023/07/25 19:49:34;;;;;;;5.40;2.55;;;;;;;;;;20995486;28;20056;-69
2023/07/25 19:59:35;;;;;;;4.72;2.95;;;;;;;;;;20995631;28;20052;-68
2023/07/25 20:09:36;;;;;;;5.35;2.35;;;;;;;;;;20994977;28;20049;-70
2023/07/25 20:19:37;;;;;;;4.15;2.70;;;;;;;;;;20994673;28;20102;-70
2023/07/25 20:29:38;;;;;;;6.45;3.28;;;;;;;;;;20994308;28;20378;-70
2023/07/25 20:39:39;;;;;;;5.32;2.75;;;;;;;;;;21000965;28;20509;-70
2023/07/25 20:49:41;;;;;;;5.30;3.00;;;;;;;;;;21008093;28;20513;-70
2023/07/25 20:59:44;;;;;;;6.78;3.17;;;;;;;;;;21007694;28;20071;-69
2023/07/25 21:09:45;;;;;;;6.55;2.92;;;;;;;;;;21006656;28;20500;-70
2023/07/25 21:19:46;;;;;;;5.30;2.45;;;;;;;;;;21004889;28;20101;-70
2023/07/25 21:29:47;;;;;;;6.63;3.25;;;;;;;;;;21004044;28;20094;-70
2023/07/25 21:39:48;;;;;;;6.22;2.63;;;;;;;;;;21003946;28;20076;-70
2023/07/25 21:49:49;;;;;;;7.40;3.03;;;;;;;;;;21002622;28;20088;-70
2023/07/25 21:59:50;;;;;;;4.82;2.70;;;;;;;;;;21002607;28;20044;-69
2023/07/25 22:09:51;;;;;;;4.72;2.22;;;;;;;;;;21001666;28;20045;-69
2023/07/25 22:19:53;;;;;;;4.70;2.58;;;;;;;;;;21001244;28;20044;-69
2023/07/25 22:29:54;;;;;;;3.97;2.30;;;;;;;;;;21000452;28;20047;-69
2023/07/25 22:39:55;;;;;;;4.18;2.30;;;;;;;;;;20999954;28;20067;-70
2023/07/25 22:49:56;;;;;;;4.20;2.33;;;;;;;;;;20999067;28;20056;-68
2023/07/25 22:59:57;;;;;;;4.82;2.40;;;;;;;;;;20998023;28;20056;-68
2023/07/25 23:09:58;;;;;;;3.47;2.20;;;;;;;;;;20997876;28;20367;-69
2023/07/25 23:19:59;;;;;;;6.28;2.50;;;;;;;;;;20997382;28;20072;-69
2023/07/25 23:30:00;;;;;;;4.60;2.05;;;;;;;;;;20996349;28;20036;-69
2023/07/25 23:40:01;;;;;;;5.57;1.90;;;;;;;;;;20996445;28;20481;-69
2023/07/25 23:50:02;;;;;;;5.18;1.80;;;;;;;;;;20996625;28;20555;-69
